sensor_id;sensor_type;location;lat;lon;timestamp;temperature;humidity
4411;DHT22;2218;51.408;7.208;2023-02-28T00:01:17;17.60;25.30
4411;DHT22;2218;51.408;7.208;2023-02-28T00:03:44;17.60;25.30
4411;DHT22;2218;51.408;7.208;2023-02-28T00:06:11;17.60;25.30
4411;DHT22;2218;51.408;7.208;2023-02-28T00:08:39;17.60;25.30
4411;DHT22;2218;51.408;7.208;2023-02-28T00:11:08;17.60;25.30
4411;DHT22;2218;51.408;7.208;2023-02-28T00:13:38;17.60;25.30
4411;DHT22;2218;51.408;7.208;2023-02-28T00:16:09;17.60;25.40
4411;DHT22;2218;51.408;7.208;2023-02-28T00:18:38;17.60;25.30
4411;DHT22;2218;51.408;7.208;2023-02-28T00:21:06;17.60;25.40
4411;DHT22;2218;51.408;7.208;2023-02-28T00:23:34;17.60;25.40
4411;DHT22;2218;51.408;7.208;2023-02-28T00:26:02;17.50;25.40
4411;DHT22;2218;51.408;7.208;2023-02-28T00:28:30;17.50;25.30
4411;DHT22;2218;51.408;7.208;2023-02-28T00:30:58;17.50;25.30
4411;DHT22;2218;51.408;7.208;2023-02-28T00:33:27;17.50;25.30
4411;DHT22;2218;51.408;7.208;2023-02-28T00:36:04;17.50;25.40
4411;DHT22;2218;51.408;7.208;2023-02-28T00:38:35;17.50;25.40
4411;DHT22;2218;51.408;7.208;2023-02-28T00:41:02;17.50;25.40
4411;DHT22;2218;51.408;7.208;2023-02-28T00:43:31;17.50;25.80
4411;DHT22;2218;51.408;7.208;2023-02-28T00:45:58;17.50;25.40
4411;DHT22;2218;51.408;7.208;2023-02-28T00:48:27;17.40;25.30
4411;DHT22;2218;51.408;7.208;2023-02-28T00:50:54;17.40;25.40
4411;DHT22;2218;51.408;7.208;2023-02-28T00:53:21;17.40;25.40
4411;DHT22;2218;51.408;7.208;2023-02-28T00:55:49;17.40;25.40
4411;DHT22;2218;51.408;7.208;2023-02-28T00:58:16;17.40;25.40
4411;DHT22;2218;51.408;7.208;2023-02-28T01:00:43;17.50;25.50
4411;DHT22;2218;51.408;7.208;2023-02-28T01:03:14;17.40;25.40
4411;DHT22;2218;51.408;7.208;2023-02-28T01:05:44;17.40;25.40
4411;DHT22;2218;51.408;7.208;2023-02-28T01:08:12;17.40;25.50
4411;DHT22;2218;51.408;7.208;2023-02-28T01:10:39;17.40;25.50
4411;DHT22;2218;51.408;7.208;2023-02-28T01:13:07;17.40;25.40
4411;DHT22;2218;51.408;7.208;2023-02-28T01:15:36;17.40;25.50
4411;DHT22;2218;51.408;7.208;2023-02-28T01:18:12;17.40;25.50
4411;DHT22;2218;51.408;7.208;2023-02-28T01:20:39;17.30;25.40
4411;DHT22;2218;51.408;7.208;2023-02-28T01:23:07;17.40;25.50
4411;DHT22;2218;51.408;7.208;2023-02-28T01:25:35;17.40;25.50
4411;DHT22;2218;51.408;7.208;2023-02-28T01:28:04;17.30;25.50
4411;DHT22;2218;51.408;7.208;2023-02-28T01:30:32;17.30;25.50
4411;DHT22;2218;51.408;7.208;2023-02-28T01:32:59;17.30;25.40
4411;DHT22;2218;51.408;7.208;2023-02-28T01:35:26;17.30;25.50
4411;DHT22;2218;51.408;7.208;2023-02-28T01:37:54;17.30;25.50
4411;DHT22;2218;51.408;7.208;2023-02-28T01:40:22;17.30;25.50
4411;DHT22;2218;51.408;7.208;2023-02-28T01:42:49;17.30;25.50
4411;DHT22;2218;51.408;7.208;2023-02-28T01:45:22;17.20;25.50
4411;DHT22;2218;51.408;7.208;2023-02-28T01:47:56;17.20;25.50
4411;DHT22;2218;51.408;7.208;2023-02-28T01:50:29;17.20;25.50
4411;DHT22;2218;51.408;7.208;2023-02-28T01:53:04;17.30;25.60
4411;DHT22;2218;51.408;7.208;2023-02-28T01:55:39;17.30;25.60
4411;DHT22;2218;51.408;7.208;2023-02-28T01:58:09;17.30;25.60
4411;DHT22;2218;51.408;7.208;2023-02-28T02:00:36;17.30;25.50
4411;DHT22;2218;51.408;7.208;2023-02-28T02:03:11;17.30;25.30
4411;DHT22;2218;51.408;7.208;2023-02-28T02:05:41;17.40;25.70
4411;DHT22;2218;51.408;7.208;2023-02-28T02:08:16;17.40;25.20
4411;DHT22;2218;51.408;7.208;2023-02-28T02:10:49;17.40;25.20
4411;DHT22;2218;51.408;7.208;2023-02-28T02:13:37;17.50;25.30
4411;DHT22;2218;51.408;7.208;2023-02-28T02:16:25;17.50;25.40
4411;DHT22;2218;51.408;7.208;2023-02-28T02:19:15;17.50;25.40
4411;DHT22;2218;51.408;7.208;2023-02-28T02:22:16;17.50;25.40
4411;DHT22;2218;51.408;7.208;2023-02-28T02:25:12;17.50;25.30
4411;DHT22;2218;51.408;7.208;2023-02-28T02:28:13;17.60;25.30
4411;DHT22;2218;51.408;7.208;2023-02-28T02:34:47;17.60;25.20
4411;DHT22;2218;51.408;7.208;2023-02-28T02:37:27;17.60;25.30
4411;DHT22;2218;51.408;7.208;2023-02-28T02:40:10;17.60;25.20
4411;DHT22;2218;51.408;7.208;2023-02-28T02:42:45;17.60;25.30
4411;DHT22;2218;51.408;7.208;2023-02-28T02:45:22;17.60;25.20
4411;DHT22;2218;51.408;7.208;2023-02-28T02:47:55;17.60;25.20
4411;DHT22;2218;51.408;7.208;2023-02-28T02:50:29;17.60;25.10
4411;DHT22;2218;51.408;7.208;2023-02-28T02:53:01;17.60;25.20
4411;DHT22;2218;51.408;7.208;2023-02-28T02:55:33;17.60;25.10
4411;DHT22;2218;51.408;7.208;2023-02-28T02:58:08;17.60;25.10
4411;DHT22;2218;51.408;7.208;2023-02-28T03:00:42;17.60;25.10
4411;DHT22;2218;51.408;7.208;2023-02-28T03:03:15;17.60;25.10
4411;DHT22;2218;51.408;7.208;2023-02-28T03:05:49;17.60;25.00
4411;DHT22;2218;51.408;7.208;2023-02-28T03:08:17;17.60;25.00
4411;DHT22;2218;51.408;7.208;2023-02-28T03:10:48;17.70;25.10
4411;DHT22;2218;51.408;7.208;2023-02-28T03:13:39;17.70;25.10
4411;DHT22;2218;51.408;7.208;2023-02-28T03:16:28;17.70;25.10
4411;DHT22;2218;51.408;7.208;2023-02-28T03:19:08;17.70;25.10
4411;DHT22;2218;51.408;7.208;2023-02-28T03:21:59;17.70;25.20
4411;DHT22;2218;51.408;7.208;2023-02-28T03:24:41;17.70;25.20
4411;DHT22;2218;51.408;7.208;2023-02-28T03:27:19;17.70;25.20
4411;DHT22;2218;51.408;7.208;2023-02-28T03:29:57;17.70;25.10
4411;DHT22;2218;51.408;7.208;2023-02-28T03:32:32;17.70;25.10
4411;DHT22;2218;51.408;7.208;2023-02-28T03:35:07;17.70;25.00
4411;DHT22;2218;51.408;7.208;2023-02-28T03:37:42;17.70;25.10
4411;DHT22;2218;51.408;7.208;2023-02-28T03:40:15;17.70;25.10
4411;DHT22;2218;51.408;7.208;2023-02-28T03:42:48;17.70;25.10
4411;DHT22;2218;51.408;7.208;2023-02-28T03:45:21;17.70;25.10
4411;DHT22;2218;51.408;7.208;2023-02-28T03:47:57;17.70;25.00
4411;DHT22;2218;51.408;7.208;2023-02-28T03:50:33;17.70;25.00
4411;DHT22;2218;51.408;7.208;2023-02-28T03:53:08;17.80;25.10
4411;DHT22;2218;51.408;7.208;2023-02-28T03:55:41;17.70;25.00
4411;DHT22;2218;51.408;7.208;2023-02-28T03:58:15;17.70;25.00
4411;DHT22;2218;51.408;7.208;2023-02-28T04:00:55;17.70;25.00
4411;DHT22;2218;51.408;7.208;2023-02-28T04:03:25;17.80;25.00
4411;DHT22;2218;51.408;7.208;2023-02-28T04:05:54;17.80;25.00
4411;DHT22;2218;51.408;7.208;2023-02-28T04:08:24;17.70;24.90
4411;DHT22;2218;51.408;7.208;2023-02-28T04:10:55;17.70;24.90
4411;DHT22;2218;51.408;7.208;2023-02-28T04:13:27;17.70;25.00
4411;DHT22;2218;51.408;7.208;2023-02-28T04:15:53;17.80;24.90
4411;DHT22;2218;51.408;7.208;2023-02-28T04:18:20;17.70;24.90
4411;DHT22;2218;51.408;7.208;2023-02-28T04:20:47;17.70;24.90
4411;DHT22;2218;51.408;7.208;2023-02-28T04:23:14;17.80;24.90
4411;DHT22;2218;51.408;7.208;2023-02-28T04:25:42;17.80;24.90
4411;DHT22;2218;51.408;7.208;2023-02-28T04:28:10;17.80;24.90
4411;DHT22;2218;51.408;7.208;2023-02-28T04:30:37;17.80;24.90
4411;DHT22;2218;51.408;7.208;2023-02-28T04:33:05;17.80;24.90
4411;DHT22;2218;51.408;7.208;2023-02-28T04:35:32;17.80;24.90
4411;DHT22;2218;51.408;7.208;2023-02-28T04:37:59;17.70;24.80
4411;DHT22;2218;51.408;7.208;2023-02-28T04:40:26;17.70;24.80
4411;DHT22;2218;51.408;7.208;2023-02-28T04:42:54;17.80;24.90
4411;DHT22;2218;51.408;7.208;2023-02-28T04:45:21;17.70;24.90
4411;DHT22;2218;51.408;7.208;2023-02-28T04:47:48;17.80;24.90
4411;DHT22;2218;51.408;7.208;2023-02-28T04:50:15;17.80;24.90
4411;DHT22;2218;51.408;7.208;2023-02-28T04:52:42;17.80;24.90
4411;DHT22;2218;51.408;7.208;2023-02-28T04:55:09;17.80;24.90
4411;DHT22;2218;51.408;7.208;2023-02-28T04:57:36;17.80;24.80
4411;DHT22;2218;51.408;7.208;2023-02-28T05:00:06;17.80;24.80
4411;DHT22;2218;51.408;7.208;2023-02-28T05:02:37;17.80;24.80
4411;DHT22;2218;51.408;7.208;2023-02-28T05:05:05;17.80;24.80
4411;DHT22;2218;51.408;7.208;2023-02-28T05:07:32;17.80;24.80
4411;DHT22;2218;51.408;7.208;2023-02-28T05:09:59;17.80;24.80
4411;DHT22;2218;51.408;7.208;2023-02-28T05:12:26;17.80;24.70
4411;DHT22;2218;51.408;7.208;2023-02-28T05:14:53;17.80;24.70
4411;DHT22;2218;51.408;7.208;2023-02-28T05:17:21;17.80;24.60
4411;DHT22;2218;51.408;7.208;2023-02-28T05:19:48;17.90;24.60
4411;DHT22;2218;51.408;7.208;2023-02-28T05:22:15;17.90;24.50
4411;DHT22;2218;51.408;7.208;2023-02-28T05:24:42;17.90;24.50
4411;DHT22;2218;51.408;7.208;2023-02-28T05:27:10;18.00;24.50
4411;DHT22;2218;51.408;7.208;2023-02-28T05:29:37;18.00;24.50
4411;DHT22;2218;51.408;7.208;2023-02-28T05:32:08;18.00;24.40
4411;DHT22;2218;51.408;7.208;2023-02-28T05:34:38;18.00;24.40
4411;DHT22;2218;51.408;7.208;2023-02-28T05:37:06;18.00;24.40
4411;DHT22;2218;51.408;7.208;2023-02-28T05:39:37;18.10;24.40
4411;DHT22;2218;51.408;7.208;2023-02-28T05:42:04;18.10;24.40
4411;DHT22;2218;51.408;7.208;2023-02-28T05:44:32;18.10;24.30
4411;DHT22;2218;51.408;7.208;2023-02-28T05:46:59;18.10;24.30
4411;DHT22;2218;51.408;7.208;2023-02-28T05:49:26;18.10;24.30
4411;DHT22;2218;51.408;7.208;2023-02-28T05:51:54;18.10;24.30
4411;DHT22;2218;51.408;7.208;2023-02-28T05:54:21;18.10;24.30
4411;DHT22;2218;51.408;7.208;2023-02-28T05:56:48;18.10;24.30
4411;DHT22;2218;51.408;7.208;2023-02-28T05:59:15;18.10;24.30
4411;DHT22;2218;51.408;7.208;2023-02-28T06:01:43;18.10;24.30
4411;DHT22;2218;51.408;7.208;2023-02-28T06:04:15;18.10;24.30
4411;DHT22;2218;51.408;7.208;2023-02-28T06:06:44;18.10;24.30
4411;DHT22;2218;51.408;7.208;2023-02-28T06:09:12;18.10;24.30
4411;DHT22;2218;51.408;7.208;2023-02-28T06:11:40;18.10;24.30
4411;DHT22;2218;51.408;7.208;2023-02-28T06:14:09;18.10;24.30
4411;DHT22;2218;51.408;7.208;2023-02-28T06:16:40;18.10;24.30
4411;DHT22;2218;51.408;7.208;2023-02-28T06:19:09;18.10;24.30
4411;DHT22;2218;51.408;7.208;2023-02-28T06:21:37;18.10;24.30
4411;DHT22;2218;51.408;7.208;2023-02-28T06:24:04;18.10;24.30
4411;DHT22;2218;51.408;7.208;2023-02-28T06:26:33;18.10;24.20
4411;DHT22;2218;51.408;7.208;2023-02-28T06:29:00;18.10;24.20
4411;DHT22;2218;51.408;7.208;2023-02-28T06:31:28;18.10;24.20
4411;DHT22;2218;51.408;7.208;2023-02-28T06:33:55;18.10;24.20
4411;DHT22;2218;51.408;7.208;2023-02-28T06:36:22;18.10;24.20
4411;DHT22;2218;51.408;7.208;2023-02-28T06:38:49;18.20;24.20
4411;DHT22;2218;51.408;7.208;2023-02-28T06:41:22;18.20;24.20
4411;DHT22;2218;51.408;7.208;2023-02-28T06:43:51;18.20;24.20
4411;DHT22;2218;51.408;7.208;2023-02-28T06:46:19;18.20;24.20
4411;DHT22;2218;51.408;7.208;2023-02-28T06:48:46;18.20;24.20
4411;DHT22;2218;51.408;7.208;2023-02-28T06:51:15;18.20;24.10
4411;DHT22;2218;51.408;7.208;2023-02-28T06:53:43;18.30;24.20
4411;DHT22;2218;51.408;7.208;2023-02-28T06:56:13;18.30;24.20
4411;DHT22;2218;51.408;7.208;2023-02-28T06:58:41;18.30;24.10
4411;DHT22;2218;51.408;7.208;2023-02-28T07:01:09;18.30;24.20
4411;DHT22;2218;51.408;7.208;2023-02-28T07:03:36;18.40;24.20
4411;DHT22;2218;51.408;7.208;2023-02-28T07:06:04;18.40;24.20
4411;DHT22;2218;51.408;7.208;2023-02-28T07:08:32;18.40;24.10
4411;DHT22;2218;51.408;7.208;2023-02-28T07:10:59;18.40;24.20
4411;DHT22;2218;51.408;7.208;2023-02-28T07:13:26;18.50;24.20
4411;DHT22;2218;51.408;7.208;2023-02-28T07:15:54;18.50;24.20
4411;DHT22;2218;51.408;7.208;2023-02-28T07:18:22;18.50;24.20
4411;DHT22;2218;51.408;7.208;2023-02-28T07:20:50;18.60;24.30
4411;DHT22;2218;51.408;7.208;2023-02-28T07:23:17;18.60;24.20
4411;DHT22;2218;51.408;7.208;2023-02-28T07:25:45;18.60;24.30
4411;DHT22;2218;51.408;7.208;2023-02-28T07:28:13;18.60;24.20
4411;DHT22;2218;51.408;7.208;2023-02-28T07:30:40;18.70;24.30
4411;DHT22;2218;51.408;7.208;2023-02-28T07:33:07;18.70;24.30
4411;DHT22;2218;51.408;7.208;2023-02-28T07:35:36;18.70;24.30
4411;DHT22;2218;51.408;7.208;2023-02-28T07:38:03;18.70;24.30
4411;DHT22;2218;51.408;7.208;2023-02-28T07:40:33;18.70;24.20
4411;DHT22;2218;51.408;7.208;2023-02-28T07:43:00;18.70;24.30
4411;DHT22;2218;51.408;7.208;2023-02-28T07:45:29;18.70;24.00
4411;DHT22;2218;51.408;7.208;2023-02-28T07:47:58;18.70;24.10
4411;DHT22;2218;51.408;7.208;2023-02-28T07:50:24;18.70;24.00
4411;DHT22;2218;51.408;7.208;2023-02-28T07:52:54;18.70;24.20
4411;DHT22;2218;51.408;7.208;2023-02-28T07:55:21;18.70;24.10
4411;DHT22;2218;51.408;7.208;2023-02-28T07:57:48;18.70;24.10
4411;DHT22;2218;51.408;7.208;2023-02-28T08:00:15;18.70;24.60
4411;DHT22;2218;51.408;7.208;2023-02-28T08:02:42;18.70;24.20
4411;DHT22;2218;51.408;7.208;2023-02-28T08:05:09;18.60;24.20
4411;DHT22;2218;51.408;7.208;2023-02-28T08:07:36;18.60;24.10
4411;DHT22;2218;51.408;7.208;2023-02-28T08:10:06;18.70;24.30
4411;DHT22;2218;51.408;7.208;2023-02-28T08:12:35;18.70;24.30
4411;DHT22;2218;51.408;7.208;2023-02-28T08:15:03;18.70;24.30
4411;DHT22;2218;51.408;7.208;2023-02-28T08:17:30;18.60;24.30
4411;DHT22;2218;51.408;7.208;2023-02-28T08:19:57;18.60;24.30
4411;DHT22;2218;51.408;7.208;2023-02-28T08:22:24;18.60;24.30
4411;DHT22;2218;51.408;7.208;2023-02-28T08:24:51;18.60;24.30
4411;DHT22;2218;51.408;7.208;2023-02-28T08:27:19;18.60;24.30
4411;DHT22;2218;51.408;7.208;2023-02-28T08:29:46;18.60;24.40
4411;DHT22;2218;51.408;7.208;2023-02-28T08:32:13;18.60;24.40
4411;DHT22;2218;51.408;7.208;2023-02-28T08:34:40;18.60;24.40
4411;DHT22;2218;51.408;7.208;2023-02-28T08:37:07;18.60;24.50
4411;DHT22;2218;51.408;7.208;2023-02-28T08:39:34;18.60;24.90
4411;DHT22;2218;51.408;7.208;2023-02-28T08:42:02;18.60;24.60
4411;DHT22;2218;51.408;7.208;2023-02-28T08:44:31;18.60;24.50
4411;DHT22;2218;51.408;7.208;2023-02-28T08:46:59;18.60;24.60
4411;DHT22;2218;51.408;7.208;2023-02-28T08:49:26;18.60;24.60
4411;DHT22;2218;51.408;7.208;2023-02-28T08:51:54;18.60;24.60
4411;DHT22;2218;51.408;7.208;2023-02-28T08:54:22;18.60;24.60
4411;DHT22;2218;51.408;7.208;2023-02-28T08:56:49;18.60;24.60
4411;DHT22;2218;51.408;7.208;2023-02-28T08:59:16;18.60;24.60
4411;DHT22;2218;51.408;7.208;2023-02-28T09:01:44;18.60;24.60
4411;DHT22;2218;51.408;7.208;2023-02-28T09:04:11;18.60;24.60
4411;DHT22;2218;51.408;7.208;2023-02-28T09:06:38;18.60;24.60
4411;DHT22;2218;51.408;7.208;2023-02-28T09:09:05;18.60;24.60
4411;DHT22;2218;51.408;7.208;2023-02-28T09:11:33;18.60;24.70
4411;DHT22;2218;51.408;7.208;2023-02-28T09:14:01;18.60;24.70
4411;DHT22;2218;51.408;7.208;2023-02-28T09:16:29;18.60;24.70
4411;DHT22;2218;51.408;7.208;2023-02-28T09:18:58;18.60;24.70
4411;DHT22;2218;51.408;7.208;2023-02-28T09:21:25;18.50;24.50
4411;DHT22;2218;51.408;7.208;2023-02-28T09:23:52;18.50;24.60
4411;DHT22;2218;51.408;7.208;2023-02-28T09:26:21;18.50;24.60
4411;DHT22;2218;51.408;7.208;2023-02-28T09:28:49;18.50;24.50
4411;DHT22;2218;51.408;7.208;2023-02-28T09:31:19;18.50;24.50
4411;DHT22;2218;51.408;7.208;2023-02-28T09:33:48;18.50;24.60
4411;DHT22;2218;51.408;7.208;2023-02-28T09:36:17;18.50;24.60
4411;DHT22;2218;51.408;7.208;2023-02-28T09:38:44;18.50;24.60
4411;DHT22;2218;51.408;7.208;2023-02-28T09:41:14;18.50;24.60
4411;DHT22;2218;51.408;7.208;2023-02-28T09:43:45;18.50;24.60
4411;DHT22;2218;51.408;7.208;2023-02-28T09:46:30;18.50;24.70
4411;DHT22;2218;51.408;7.208;2023-02-28T09:49:01;18.50;24.60
4411;DHT22;2218;51.408;7.208;2023-02-28T09:51:40;18.50;24.60
4411;DHT22;2218;51.408;7.208;2023-02-28T09:54:17;18.50;24.60
4411;DHT22;2218;51.408;7.208;2023-02-28T09:56:49;18.60;24.70
4411;DHT22;2218;51.408;7.208;2023-02-28T09:59:35;18.60;24.70
4411;DHT22;2218;51.408;7.208;2023-02-28T10:02:33;18.60;24.70
4411;DHT22;2218;51.408;7.208;2023-02-28T10:05:27;18.60;24.70
4411;DHT22;2218;51.408;7.208;2023-02-28T10:08:08;18.60;24.70
4411;DHT22;2218;51.408;7.208;2023-02-28T10:10:42;18.60;24.70
4411;DHT22;2218;51.408;7.208;2023-02-28T10:13:20;18.60;24.70
4411;DHT22;2218;51.408;7.208;2023-02-28T10:15:55;18.60;24.70
4411;DHT22;2218;51.408;7.208;2023-02-28T10:18:29;18.60;24.70
4411;DHT22;2218;51.408;7.208;2023-02-28T10:21:03;18.50;24.60
4411;DHT22;2218;51.408;7.208;2023-02-28T10:23:35;18.50;24.60
4411;DHT22;2218;51.408;7.208;2023-02-28T10:26:10;18.50;24.60
4411;DHT22;2218;51.408;7.208;2023-02-28T10:28:39;18.50;24.60
4411;DHT22;2218;51.408;7.208;2023-02-28T10:31:11;18.50;24.60
4411;DHT22;2218;51.408;7.208;2023-02-28T10:33:43;18.50;24.60
4411;DHT22;2218;51.408;7.208;2023-02-28T10:36:14;18.50;24.60
4411;DHT22;2218;51.408;7.208;2023-02-28T10:38:46;18.50;24.60
4411;DHT22;2218;51.408;7.208;2023-02-28T10:41:18;18.50;24.60
4411;DHT22;2218;51.408;7.208;2023-02-28T10:44:13;18.50;24.70
4411;DHT22;2218;51.408;7.208;2023-02-28T10:46:42;18.40;24.60
4411;DHT22;2218;51.408;7.208;2023-02-28T10:49:15;18.50;24.70
4411;DHT22;2218;51.408;7.208;2023-02-28T10:51:47;18.50;24.70
4411;DHT22;2218;51.408;7.208;2023-02-28T10:54:30;18.50;24.70
4411;DHT22;2218;51.408;7.208;2023-02-28T10:57:17;18.50;24.70
4411;DHT22;2218;51.408;7.208;2023-02-28T10:59:50;18.50;24.70
4411;DHT22;2218;51.408;7.208;2023-02-28T11:02:32;18.50;24.60
4411;DHT22;2218;51.408;7.208;2023-02-28T11:05:00;18.50;24.70
4411;DHT22;2218;51.408;7.208;2023-02-28T11:07:27;18.50;24.60
4411;DHT22;2218;51.408;7.208;2023-02-28T11:09:57;18.50;24.60
4411;DHT22;2218;51.408;7.208;2023-02-28T11:12:26;18.50;24.60
4411;DHT22;2218;51.408;7.208;2023-02-28T11:14:58;18.50;24.60
4411;DHT22;2218;51.408;7.208;2023-02-28T11:17:30;18.50;24.60
4411;DHT22;2218;51.408;7.208;2023-02-28T11:20:01;18.50;24.50
4411;DHT22;2218;51.408;7.208;2023-02-28T11:22:35;18.50;24.50
4411;DHT22;2218;51.408;7.208;2023-02-28T11:25:13;18.50;24.50
4411;DHT22;2218;51.408;7.208;2023-02-28T11:27:49;18.50;24.50
4411;DHT22;2218;51.408;7.208;2023-02-28T11:30:30;18.50;24.50
4411;DHT22;2218;51.408;7.208;2023-02-28T11:33:00;18.50;24.50
4411;DHT22;2218;51.408;7.208;2023-02-28T11:35:31;18.50;24.50
4411;DHT22;2218;51.408;7.208;2023-02-28T11:38:02;18.50;24.90
4411;DHT22;2218;51.408;7.208;2023-02-28T11:40:41;18.50;24.50
4411;DHT22;2218;51.408;7.208;2023-02-28T11:43:23;18.50;24.50
4411;DHT22;2218;51.408;7.208;2023-02-28T11:46:07;18.50;24.40
4411;DHT22;2218;51.408;7.208;2023-02-28T11:48:57;18.50;24.50
4411;DHT22;2218;51.408;7.208;2023-02-28T11:51:33;18.50;24.40
4411;DHT22;2218;51.408;7.208;2023-02-28T11:54:23;18.50;24.40
4411;DHT22;2218;51.408;7.208;2023-02-28T11:57:03;18.40;24.30
4411;DHT22;2218;51.408;7.208;2023-02-28T11:59:53;18.50;24.40
4411;DHT22;2218;51.408;7.208;2023-02-28T12:02:28;18.50;24.30
4411;DHT22;2218;51.408;7.208;2023-02-28T12:05:13;18.50;24.30
4411;DHT22;2218;51.408;7.208;2023-02-28T12:07:58;18.50;24.30
4411;DHT22;2218;51.408;7.208;2023-02-28T12:10:39;18.50;24.20
4411;DHT22;2218;51.408;7.208;2023-02-28T12:13:23;18.50;24.20
4411;DHT22;2218;51.408;7.208;2023-02-28T12:16:14;18.50;24.20
4411;DHT22;2218;51.408;7.208;2023-02-28T12:19:05;18.50;24.10
4411;DHT22;2218;51.408;7.208;2023-02-28T12:21:52;18.50;24.10
4411;DHT22;2218;51.408;7.208;2023-02-28T12:24:45;18.50;24.10
4411;DHT22;2218;51.408;7.208;2023-02-28T12:27:23;18.50;24.10
4411;DHT22;2218;51.408;7.208;2023-02-28T12:29:58;18.60;24.20
4411;DHT22;2218;51.408;7.208;2023-02-28T12:32:31;18.60;24.20
4411;DHT22;2218;51.408;7.208;2023-02-28T12:35:04;18.60;24.20
4411;DHT22;2218;51.408;7.208;2023-02-28T12:37:40;18.60;24.20
4411;DHT22;2218;51.408;7.208;2023-02-28T12:40:13;18.60;24.20
4411;DHT22;2218;51.408;7.208;2023-02-28T12:42:47;18.60;24.20
4411;DHT22;2218;51.408;7.208;2023-02-28T12:45:20;18.50;24.10
4411;DHT22;2218;51.408;7.208;2023-02-28T12:47:54;18.50;24.10
4411;DHT22;2218;51.408;7.208;2023-02-28T12:50:25;18.50;24.10
4411;DHT22;2218;51.408;7.208;2023-02-28T12:52:59;18.50;24.10
4411;DHT22;2218;51.408;7.208;2023-02-28T12:55:35;18.50;24.10
4411;DHT22;2218;51.408;7.208;2023-02-28T12:58:13;18.50;24.10
4411;DHT22;2218;51.408;7.208;2023-02-28T13:01:12;18.50;24.00
4411;DHT22;2218;51.408;7.208;2023-02-28T13:04:38;18.50;24.00
4411;DHT22;2218;51.408;7.208;2023-02-28T13:07:32;18.50;24.00
4411;DHT22;2218;51.408;7.208;2023-02-28T13:10:18;18.50;24.00
4411;DHT22;2218;51.408;7.208;2023-02-28T13:12:50;18.50;24.00
4411;DHT22;2218;51.408;7.208;2023-02-28T13:15:21;18.50;24.40
4411;DHT22;2218;51.408;7.208;2023-02-28T13:17:53;18.50;24.00
4411;DHT22;2218;51.408;7.208;2023-02-28T13:20:25;18.50;24.00
4411;DHT22;2218;51.408;7.208;2023-02-28T13:23:01;18.50;24.00
4411;DHT22;2218;51.408;7.208;2023-02-28T13:25:52;18.60;24.00
4411;DHT22;2218;51.408;7.208;2023-02-28T13:31:25;18.60;24.00
4411;DHT22;2218;51.408;7.208;2023-02-28T13:34:14;18.60;24.00
4411;DHT22;2218;51.408;7.208;2023-02-28T13:36:42;18.60;24.00
4411;DHT22;2218;51.408;7.208;2023-02-28T13:39:46;18.60;23.90
4411;DHT22;2218;51.408;7.208;2023-02-28T13:42:33;18.60;24.00
4411;DHT22;2218;51.408;7.208;2023-02-28T13:45:23;18.60;24.00
4411;DHT22;2218;51.408;7.208;2023-02-28T13:47:53;18.60;24.00
4411;DHT22;2218;51.408;7.208;2023-02-28T13:50:35;18.60;24.00
4411;DHT22;2218;51.408;7.208;2023-02-28T13:53:31;18.60;24.00
4411;DHT22;2218;51.408;7.208;2023-02-28T13:56:21;18.60;24.00
4411;DHT22;2218;51.408;7.208;2023-02-28T13:59:05;18.60;24.00
4411;DHT22;2218;51.408;7.208;2023-02-28T14:01:59;18.60;24.00
4411;DHT22;2218;51.408;7.208;2023-02-28T14:04:59;18.60;24.00
4411;DHT22;2218;51.408;7.208;2023-02-28T14:07:32;18.60;24.00
4411;DHT22;2218;51.408;7.208;2023-02-28T14:10:08;18.50;23.90
4411;DHT22;2218;51.408;7.208;2023-02-28T14:12:59;18.50;23.90
4411;DHT22;2218;51.408;7.208;2023-02-28T14:15:44;18.50;24.00
4411;DHT22;2218;51.408;7.208;2023-02-28T14:18:20;18.50;24.00
4411;DHT22;2218;51.408;7.208;2023-02-28T14:27:35;18.50;24.00
4411;DHT22;2218;51.408;7.208;2023-02-28T14:30:51;18.60;24.10
4411;DHT22;2218;51.408;7.208;2023-02-28T14:33:39;18.60;24.10
4411;DHT22;2218;51.408;7.208;2023-02-28T14:36:18;18.60;24.10
4411;DHT22;2218;51.408;7.208;2023-02-28T14:38:52;18.60;24.50
4411;DHT22;2218;51.408;7.208;2023-02-28T14:41:27;18.60;24.10
4411;DHT22;2218;51.408;7.208;2023-02-28T14:43:58;18.60;24.10
4411;DHT22;2218;51.408;7.208;2023-02-28T14:46:30;18.60;24.10
4411;DHT22;2218;51.408;7.208;2023-02-28T14:49:04;18.70;24.20
4411;DHT22;2218;51.408;7.208;2023-02-28T14:51:33;18.70;24.20
4411;DHT22;2218;51.408;7.208;2023-02-28T14:54:01;18.70;24.20
4411;DHT22;2218;51.408;7.208;2023-02-28T14:56:35;18.70;24.60
4411;DHT22;2218;51.408;7.208;2023-02-28T14:59:05;18.60;24.20
4411;DHT22;2218;51.408;7.208;2023-02-28T15:01:49;18.70;24.30
4411;DHT22;2218;51.408;7.208;2023-02-28T15:04:22;18.70;24.30
4411;DHT22;2218;51.408;7.208;2023-02-28T15:07:09;18.70;24.30
4411;DHT22;2218;51.408;7.208;2023-02-28T15:09:37;18.70;24.30
4411;DHT22;2218;51.408;7.208;2023-02-28T15:12:06;18.60;24.20
4411;DHT22;2218;51.408;7.208;2023-02-28T15:14:35;18.60;24.20
4411;DHT22;2218;51.408;7.208;2023-02-28T15:17:08;18.60;24.20
4411;DHT22;2218;51.408;7.208;2023-02-28T15:19:51;18.60;24.20
4411;DHT22;2218;51.408;7.208;2023-02-28T15:22:23;18.60;24.20
4411;DHT22;2218;51.408;7.208;2023-02-28T15:24:55;18.60;24.20
4411;DHT22;2218;51.408;7.208;2023-02-28T15:27:26;18.60;24.20
4411;DHT22;2218;51.408;7.208;2023-02-28T15:29:57;18.60;24.20
4411;DHT22;2218;51.408;7.208;2023-02-28T15:32:29;18.60;24.20
4411;DHT22;2218;51.408;7.208;2023-02-28T15:34:58;18.50;24.00
4411;DHT22;2218;51.408;7.208;2023-02-28T15:37:46;18.50;24.10
4411;DHT22;2218;51.408;7.208;2023-02-28T15:40:17;18.50;24.10
4411;DHT22;2218;51.408;7.208;2023-02-28T15:43:03;18.60;24.10
4411;DHT22;2218;51.408;7.208;2023-02-28T15:45:44;18.60;24.20
4411;DHT22;2218;51.408;7.208;2023-02-28T15:48:17;18.60;24.10
4411;DHT22;2218;51.408;7.208;2023-02-28T15:50:52;18.60;24.10
4411;DHT22;2218;51.408;7.208;2023-02-28T15:53:23;18.60;24.10
4411;DHT22;2218;51.408;7.208;2023-02-28T15:55:54;18.60;24.40
4411;DHT22;2218;51.408;7.208;2023-02-28T15:58:25;18.60;24.00
4411;DHT22;2218;51.408;7.208;2023-02-28T16:01:06;18.60;24.00
4411;DHT22;2218;51.408;7.208;2023-02-28T16:03:45;18.60;24.00
4411;DHT22;2218;51.408;7.208;2023-02-28T16:06:35;18.70;24.00
4411;DHT22;2218;51.408;7.208;2023-02-28T16:09:06;18.60;23.90
4411;DHT22;2218;51.408;7.208;2023-02-28T16:11:39;18.70;23.90
4411;DHT22;2218;51.408;7.208;2023-02-28T16:14:16;18.60;23.90
4411;DHT22;2218;51.408;7.208;2023-02-28T16:16:46;18.60;23.80
4411;DHT22;2218;51.408;7.208;2023-02-28T16:19:15;18.60;23.80
4411;DHT22;2218;51.408;7.208;2023-02-28T16:21:42;18.60;23.80
4411;DHT22;2218;51.408;7.208;2023-02-28T16:24:09;18.60;23.80
4411;DHT22;2218;51.408;7.208;2023-02-28T16:26:36;18.60;23.80
4411;DHT22;2218;51.408;7.208;2023-02-28T16:29:06;18.60;23.80
4411;DHT22;2218;51.408;7.208;2023-02-28T16:31:37;18.60;23.80
4411;DHT22;2218;51.408;7.208;2023-02-28T16:34:05;18.50;23.60
4411;DHT22;2218;51.408;7.208;2023-02-28T16:36:32;18.50;23.70
4411;DHT22;2218;51.408;7.208;2023-02-28T16:38:59;18.50;23.70
4411;DHT22;2218;51.408;7.208;2023-02-28T16:41:28;18.50;23.60
4411;DHT22;2218;51.408;7.208;2023-02-28T16:43:56;18.50;23.70
4411;DHT22;2218;51.408;7.208;2023-02-28T16:46:30;18.50;23.70
4411;DHT22;2218;51.408;7.208;2023-02-28T16:49:01;18.50;23.70
4411;DHT22;2218;51.408;7.208;2023-02-28T16:51:28;18.50;23.70
4411;DHT22;2218;51.408;7.208;2023-02-28T16:53:54;18.50;23.70